Time;durP1;ratioP1;P1;durP2;ratioP2;P2;SDS_P1;SDS_P2;PMS_P1;PMS_P2;Temp;Humidity;BMP_temperature;BMP_pressure;BME280_temperature;BME280_humidity;BME280_pressure;Samples;Min_cycle;Max_cycle;Signal;HPM_P1;HPM_P2
2022/04/20 00:01:29;;;;;;;5.72;2.42;;;9.50;81.30;;;;;;4861860;29;20053;-81
2022/04/20 00:03:54;;;;;;;4.35;2.20;;;9.50;80.80;;;;;;4862482;29;20056;-82
2022/04/20 00:06:20;;;;;;;4.60;2.60;;;9.50;80.20;;;;;;4862212;29;20075;-82
2022/04/20 00:08:46;;;;;;;5.63;2.25;;;9.50;79.80;;;;;;4850286;29;20450;-82
2022/04/20 00:11:11;;;;;;;6.40;2.20;;;9.50;80.00;;;;;;4860570;29;20472;-82
2022/04/20 00:13:37;;;;;;;5.43;2.10;;;9.40;79.80;;;;;;4844836;29;20033;-82
2022/04/20 00:16:03;;;;;;;4.53;2.10;;;9.40;79.20;;;;;;4875389;29;20348;-82
2022/04/20 00:18:29;;;;;;;6.05;3.08;;;9.40;78.70;;;;;;4857070;29;20041;-82
2022/04/20 00:20:54;;;;;;;4.35;2.10;;;9.40;79.00;;;;;;4842299;29;20484;-81
2022/04/20 00:23:20;;;;;;;3.78;1.80;;;9.30;78.10;;;;;;4855273;29;20081;-82
2022/04/20 00:25:46;;;;;;;3.85;2.10;;;9.30;78.90;;;;;;4859462;29;20059;-81
2022/04/20 00:28:11;;;;;;;7.50;2.17;;;9.20;77.70;;;;;;4856437;29;20045;-81
2022/04/20 00:30:37;;;;;;;4.88;2.08;;;9.20;77.40;;;;;;4856243;29;20045;-82
2022/04/20 00:33:03;;;;;;;4.25;2.15;;;9.20;77.00;;;;;;4841308;29;20041;-82
2022/04/20 00:35:29;;;;;;;5.10;1.92;;;9.20;77.20;;;;;;4871303;29;20526;-82
2022/04/20 00:37:55;;;;;;;4.07;2.25;;;9.10;77.30;;;;;;4856333;29;21691;-81
2022/04/20 00:40:21;;;;;;;5.32;1.80;;;9.10;77.20;;;;;;4856973;29;20067;-82
2022/04/20 00:42:47;;;;;;;3.88;1.85;;;9.10;76.90;;;;;;4875599;29;20128;-82
2022/04/20 00:45:14;;;;;;;4.65;1.95;;;9.10;76.60;;;;;;4854942;29;20109;-81
2022/04/20 00:47:42;;;;;;;4.10;1.98;;;9.00;76.30;;;;;;4848297;29;20049;-82
2022/04/20 00:50:10;;;;;;;3.75;1.52;;;9.00;75.80;;;;;;4857638;29;20041;-81
2022/04/20 00:52:36;;;;;;;7.00;2.05;;;9.00;75.70;;;;;;4873209;29;20117;-82
2022/04/20 00:55:02;;;;;;;6.13;1.98;;;8.90;75.70;;;;;;4860672;29;20072;-81
2022/04/20 00:57:27;;;;;;;5.65;2.03;;;8.90;75.60;;;;;;4844236;29;20068;-81
2022/04/20 00:59:56;;;;;;;4.35;2.17;;;8.90;75.90;;;;;;4864732;29;20084;-82
2022/04/20 01:02:22;;;;;;;4.88;1.85;;;8.90;75.30;;;;;;4861737;29;20033;-82
2022/04/20 01:04:48;;;;;;;6.93;1.95;;;8.90;75.00;;;;;;4875817;29;20140;-82
2022/04/20 01:07:15;;;;;;;4.40;1.73;;;8.90;75.00;;;;;;4876407;29;20140;-82
2022/04/20 01:09:42;;;;;;;5.47;2.03;;;8.90;74.90;;;;;;4882257;29;20040;-82
2022/04/20 01:12:09;;;;;;;3.65;1.63;;;8.80;74.90;;;;;;4859736;29;20064;-82
2022/04/20 01:14:35;;;;;;;3.83;1.88;;;8.80;75.40;;;;;;4858815;29;20400;-81
2022/04/20 01:17:02;;;;;;;3.25;1.90;;;8.80;75.10;;;;;;4877210;29;20036;-82
2022/04/20 01:19:38;;;;;;;4.50;2.00;;;8.80;75.30;;;;;;4858355;29;20375;-81
2022/04/20 01:22:06;;;;;;;3.20;1.52;;;8.80;75.70;;;;;;4858910;29;20064;-82
2022/04/20 01:24:32;;;;;;;4.78;2.10;;;8.70;75.30;;;;;;4843857;29;20072;-82
2022/04/20 01:26:58;;;;;;;6.80;1.83;;;8.70;75.90;;;;;;4842986;29;20045;-81
2022/04/20 01:29:28;;;;;;;5.40;1.63;;;8.70;76.10;;;;;;4844655;29;20029;-82
2022/04/20 01:31:54;;;;;;;4.28;2.00;;;8.70;75.50;;;;;;4860684;29;20041;-82
2022/04/20 01:34:20;;;;;;;5.55;2.08;;;8.70;76.00;;;;;;4847320;29;20360;-82
2022/04/20 01:36:46;;;;;;;3.42;1.85;;;8.60;76.10;;;;;;4846034;29;20124;-82
2022/04/20 01:39:11;;;;;;;4.15;2.17;;;8.60;76.00;;;;;;4878235;29;20127;-82
2022/04/20 01:41:37;;;;;;;3.83;1.85;;;8.60;76.10;;;;;;4860410;29;20040;-82
2022/04/20 01:44:03;;;;;;;4.20;2.10;;;8.50;76.50;;;;;;4845398;29;20057;-81
2022/04/20 01:46:29;;;;;;;4.28;2.10;;;8.50;76.60;;;;;;4841819;29;20049;-82
2022/04/20 01:48:55;;;;;;;4.15;2.03;;;8.50;76.10;;;;;;4860803;29;20201;-82
2022/04/20 01:54:04;;;;;;;5.53;1.67;;;8.50;76.90;;;;;;4876768;29;20049;-81
2022/04/20 01:56:30;;;;;;;5.93;1.98;;;8.50;77.70;;;;;;4860904;29;20490;-82
2022/04/20 01:58:56;;;;;;;4.55;2.15;;;8.40;77.70;;;;;;4864886;29;20040;-81
2022/04/20 02:04:08;;;;;;;5.40;2.17;;;8.40;78.50;;;;;;4873888;29;20056;-82
2022/04/20 02:06:34;;;;;;;3.70;1.80;;;8.30;78.60;;;;;;4856685;29;20052;-82
2022/04/20 02:08:59;;;;;;;3.88;2.10;;;8.30;78.60;;;;;;4841893;29;20041;-81
2022/04/20 02:11:25;;;;;;;4.55;1.90;;;8.20;78.90;;;;;;4860811;29;20045;-82
2022/04/20 02:13:51;;;;;;;3.67;1.98;;;8.20;78.90;;;;;;4860394;29;20060;-81
2022/04/20 02:16:17;;;;;;;3.92;1.98;;;8.20;78.90;;;;;;4842952;29;20037;-82
2022/04/20 02:18:42;;;;;;;5.38;2.17;;;8.20;79.50;;;;;;4859070;29;20112;-82
2022/04/20 02:21:08;;;;;;;5.45;2.30;;;8.10;79.80;;;;;;4845808;29;20041;-82
2022/04/20 02:23:33;;;;;;;8.27;2.58;;;8.10;80.00;;;;;;4859644;29;20068;-82
2022/04/20 02:25:59;;;;;;;4.50;1.77;;;8.10;80.70;;;;;;4871544;29;20452;-82
2022/04/20 02:28:25;;;;;;;3.80;1.95;;;8.00;80.80;;;;;;4842616;29;20050;-82
2022/04/20 02:30:50;;;;;;;4.75;2.08;;;8.00;81.00;;;;;;4860313;29;20388;-82
2022/04/20 02:33:16;;;;;;;4.68;2.13;;;8.00;82.40;;;;;;4855626;29;20329;-82
2022/04/20 02:35:42;;;;;;;5.00;2.03;;;7.90;83.10;;;;;;4858820;29;20033;-82
2022/04/20 02:38:10;;;;;;;4.50;2.08;;;7.90;83.60;;;;;;4842455;29;20041;-82
2022/04/20 02:40:40;;;;;;;5.32;2.47;;;7.80;83.50;;;;;;4852265;29;20049;-81
2022/04/20 02:43:06;;;;;;;3.97;2.20;;;7.80;83.80;;;;;;4876539;29;20055;-82
2022/04/20 02:45:31;;;;;;;3.70;1.88;;;7.80;84.50;;;;;;4874760;29;20151;-81
2022/04/20 02:47:57;;;;;;;3.53;1.90;;;7.70;84.70;;;;;;4879899;29;20140;-82
2022/04/20 02:50:24;;;;;;;5.57;2.40;;;7.70;85.60;;;;;;4857962;29;20041;-82
2022/04/20 02:52:50;;;;;;;4.10;2.10;;;7.70;86.20;;;;;;4843830;29;20483;-81
2022/04/20 02:55:15;;;;;;;4.70;1.98;;;7.60;86.40;;;;;;4861226;29;20135;-82
2022/04/20 02:57:41;;;;;;;4.47;1.77;;;7.60;86.80;;;;;;4843415;29;20040;-81
2022/04/20 03:00:07;;;;;;;3.22;1.80;;;7.60;86.60;;;;;;4854982;29;20135;-82
2022/04/20 03:02:33;;;;;;;5.22;2.58;;;7.60;87.90;;;;;;4859104;29;20045;-82
2022/04/20 03:04:59;;;;;;;5.95;3.13;;;7.50;87.90;;;;;;4842829;29;20049;-82
2022/04/20 03:07:24;;;;;;;4.38;1.65;;;7.50;87.60;;;;;;4873464;29;20040;-82
2022/04/20 03:09:50;;;;;;;7.88;2.80;;;7.50;88.40;;;;;;4865750;29;20502;-82
2022/04/20 03:12:16;;;;;;;3.58;1.80;;;7.50;88.50;;;;;;4845368;29;20143;-81
2022/04/20 03:14:41;;;;;;;4.63;2.60;;;7.50;88.20;;;;;;4847900;29;20049;-82
2022/04/20 03:17:07;;;;;;;4.18;2.08;;;7.40;88.30;;;;;;4874014;29;20123;-82
2022/04/20 03:19:33;;;;;;;4.07;2.10;;;7.40;89.60;;;;;;4860379;29;20089;-82
2022/04/20 03:21:59;;;;;;;4.47;2.38;;;7.40;88.90;;;;;;4842893;29;20053;-82
2022/04/20 03:24:24;;;;;;;4.82;1.90;;;7.40;89.80;;;;;;4842429;29;20310;-82
2022/04/20 03:26:50;;;;;;;4.47;2.00;;;7.40;90.00;;;;;;4855323;29;20045;-82
2022/04/20 03:29:16;;;;;;;5.93;2.08;;;7.40;90.30;;;;;;4854037;29;20045;-82
2022/04/20 03:31:42;;;;;;;5.88;2.03;;;7.30;90.60;;;;;;4874515;29;20120;-82
2022/04/20 03:34:08;;;;;;;4.93;2.00;;;7.30;90.40;;;;;;4856133;29;20460;-82
2022/04/20 03:36:34;;;;;;;6.00;2.65;;;7.30;90.60;;;;;;4857672;29;20136;-82
2022/04/20 03:39:00;;;;;;;4.32;2.20;;;7.30;91.20;;;;;;4842521;29;20051;-81
2022/04/20 03:41:26;;;;;;;5.30;2.45;;;7.30;91.50;;;;;;4857606;29;20120;-82
2022/04/20 03:43:52;;;;;;;7.28;2.60;;;7.20;91.20;;;;;;4857870;29;20135;-82
2022/04/20 03:46:18;;;;;;;5.18;2.15;;;7.20;91.70;;;;;;4856812;29;20472;-82
2022/04/20 03:48:45;;;;;;;3.45;1.90;;;7.20;91.40;;;;;;4856840;29;20044;-82
2022/04/20 03:51:11;;;;;;;5.68;2.47;;;7.20;91.40;;;;;;4856817;29;20541;-82
2022/04/20 03:53:36;;;;;;;7.70;2.72;;;7.20;91.20;;;;;;4857740;29;20045;-82
2022/04/20 03:56:02;;;;;;;5.90;2.30;;;7.10;91.70;;;;;;4872474;29;20044;-81
2022/04/20 03:58:28;;;;;;;5.15;2.60;;;7.10;91.50;;;;;;4871880;29;20100;-81
2022/04/20 04:00:54;;;;;;;4.32;2.60;;;7.10;92.10;;;;;;4854927;29;20037;-82
2022/04/20 04:03:20;;;;;;;4.15;2.10;;;7.10;92.00;;;;;;4855178;29;20137;-82
2022/04/20 04:05:45;;;;;;;4.43;2.40;;;7.00;91.80;;;;;;4856956;29;20052;-82
2022/04/20 04:08:11;;;;;;;5.60;2.60;;;7.00;91.60;;;;;;4856532;29;20128;-82
2022/04/20 04:10:37;;;;;;;6.05;2.05;;;7.10;91.70;;;;;;4857202;29;20553;-81
2022/04/20 04:13:02;;;;;;;5.00;2.72;;;7.10;91.80;;;;;;4841838;29;20131;-82
2022/04/20 04:15:29;;;;;;;3.65;1.98;;;7.10;91.90;;;;;;4869684;29;20041;-82
2022/04/20 04:17:58;;;;;;;4.10;2.13;;;7.10;91.80;;;;;;4856669;29;20053;-82
2022/04/20 04:20:26;;;;;;;5.43;2.40;;;7.10;92.00;;;;;;4857366;29;20045;-82
2022/04/20 04:22:52;;;;;;;6.10;2.30;;;7.00;91.90;;;;;;4852048;29;20499;-82
2022/04/20 04:25:18;;;;;;;4.65;2.80;;;7.10;92.20;;;;;;4872720;29;20065;-81
2022/04/20 04:27:44;;;;;;;4.05;2.35;;;7.10;92.40;;;;;;4856730;29;20463;-83
2022/04/20 04:30:10;;;;;;;5.68;2.75;;;7.00;91.80;;;;;;4857645;29;20115;-82
2022/04/20 04:32:36;;;;;;;6.25;2.83;;;7.00;92.20;;;;;;4857808;29;21636;-81
2022/04/20 04:35:02;;;;;;;4.90;2.40;;;7.00;92.20;;;;;;4859779;29;20048;-82
2022/04/20 04:37:28;;;;;;;4.00;2.05;;;7.00;92.30;;;;;;4877582;29;20045;-82
2022/04/20 04:39:54;;;;;;;4.88;2.33;;;7.00;92.00;;;;;;4864777;29;20528;-81
2022/04/20 04:42:19;;;;;;;4.18;2.30;;;7.00;92.10;;;;;;4862305;29;20093;-82
2022/04/20 04:44:45;;;;;;;7.05;2.90;;;7.00;91.80;;;;;;4859797;29;20057;-82
2022/04/20 04:49:57;;;;;;;6.43;2.78;;;7.00;92.10;;;;;;4872233;29;20503;-81
2022/04/20 04:52:22;;;;;;;5.22;2.58;;;7.00;92.30;;;;;;4859317;29;20041;-82
2022/04/20 04:54:48;;;;;;;5.90;2.53;;;7.00;92.30;;;;;;4861647;29;20033;-82
2022/04/20 04:57:14;;;;;;;4.63;2.42;;;7.00;92.30;;;;;;4862107;29;20491;-82
2022/04/20 04:59:41;;;;;;;4.20;2.22;;;7.00;92.50;;;;;;4859762;29;20415;-81
2022/04/20 05:02:08;;;;;;;7.53;2.72;;;7.00;92.10;;;;;;4843383;29;20052;-81
2022/04/20 05:04:39;;;;;;;6.57;2.40;;;7.00;92.40;;;;;;4865155;29;20059;-81
2022/04/20 05:07:05;;;;;;;5.18;2.20;;;7.00;92.40;;;;;;4866672;29;20040;-82
2022/04/20 05:09:31;;;;;;;4.75;2.78;;;7.00;92.40;;;;;;4859313;29;20041;-81
2022/04/20 05:11:56;;;;;;;5.15;2.50;;;7.00;92.70;;;;;;4864247;29;20040;-81
2022/04/20 05:14:22;;;;;;;6.05;2.78;;;7.00;92.70;;;;;;4870485;29;20040;-82
2022/04/20 05:16:49;;;;;;;5.25;2.58;;;7.00;92.30;;;;;;4868113;29;20435;-81
2022/04/20 05:19:14;;;;;;;5.63;2.90;;;7.00;92.60;;;;;;4859500;29;20443;-81
2022/04/20 05:21:40;;;;;;;5.25;2.40;;;7.00;92.50;;;;;;4859437;29;20108;-80
2022/04/20 05:24:06;;;;;;;4.88;2.70;;;7.10;92.40;;;;;;4876221;29;20131;-81
2022/04/20 05:26:32;;;;;;;5.28;2.80;;;7.10;92.10;;;;;;4873848;29;20073;-81
2022/04/20 05:28:58;;;;;;;5.53;2.70;;;7.10;92.40;;;;;;4857995;29;20120;-82
2022/04/20 05:31:23;;;;;;;6.32;2.92;;;7.10;92.20;;;;;;4864703;29;20049;-81
2022/04/20 05:33:49;;;;;;;8.93;2.80;;;7.10;91.80;;;;;;4874547;29;20041;-81
2022/04/20 05:36:18;;;;;;;5.65;3.00;;;7.20;92.40;;;;;;4857470;29;20045;-82
2022/04/20 05:41:41;;;;;;;7.03;3.50;;;7.30;91.80;;;;;;4871533;29;20055;-82
2022/04/20 05:44:11;;;;;;;6.57;3.78;;;7.30;91.70;;;;;;4857144;29;20069;-81
2022/04/20 05:46:37;;;;;;;8.48;4.53;;;7.40;91.00;;;;;;4837213;29;20143;-81
2022/04/20 05:49:03;;;;;;;6.18;3.10;;;7.50;91.10;;;;;;4858196;29;20045;-81
2022/04/20 05:51:29;;;;;;;8.57;3.83;;;7.50;90.70;;;;;;4856685;29;20069;-82
2022/04/20 05:53:55;;;;;;;6.40;3.20;;;7.60;90.70;;;;;;4859738;29;21541;-80
2022/04/20 05:56:20;;;;;;;6.38;3.33;;;7.60;90.50;;;;;;4862759;29;20056;-81
2022/04/20 05:58:50;;;;;;;7.95;3.10;;;7.70;90.40;;;;;;4846879;29;20052;-81
2022/04/20 06:01:19;;;;;;;6.28;3.20;;;7.70;90.30;;;;;;4868780;29;20305;-81
2022/04/20 06:03:45;;;;;;;6.45;2.97;;;7.80;89.90;;;;;;4860585;29;20069;-82
2022/04/20 06:06:12;;;;;;;7.38;2.72;;;7.90;88.60;;;;;;4861528;29;20048;-82
2022/04/20 06:08:37;;;;;;;3.78;2.08;;;8.00;88.50;;;;;;4857037;29;20052;-79
2022/04/20 06:11:04;;;;;;;6.10;2.55;;;8.00;88.00;;;;;;4870295;29;20041;-83
2022/04/20 06:13:29;;;;;;;5.25;2.55;;;8.10;87.20;;;;;;4874034;29;20052;-82
2022/04/20 06:15:55;;;;;;;5.20;2.65;;;8.10;86.60;;;;;;4842540;29;20037;-84
2022/04/20 06:18:22;;;;;;;5.13;2.65;;;8.20;86.10;;;;;;4855925;29;20045;-81
2022/04/20 06:20:47;;;;;;;4.75;2.20;;;8.30;85.40;;;;;;4855956;29;20092;-82
2022/04/20 06:23:13;;;;;;;4.03;2.30;;;8.40;85.10;;;;;;4856743;29;20139;-82
2022/04/20 06:25:39;;;;;;;4.65;2.65;;;8.40;84.20;;;;;;4872349;29;20076;-83
2022/04/20 06:28:06;;;;;;;5.28;3.08;;;8.40;83.50;;;;;;4854178;29;20546;-82
2022/04/20 06:30:32;;;;;;;4.50;2.55;;;8.50;82.80;;;;;;4856006;29;20049;-82
2022/04/20 06:32:57;;;;;;;4.53;2.55;;;8.60;82.50;;;;;;4840780;29;20404;-82
2022/04/20 06:35:23;;;;;;;6.45;2.78;;;8.60;82.20;;;;;;4871003;29;20037;-82
2022/04/20 06:37:50;;;;;;;4.03;2.10;;;8.70;81.80;;;;;;4855561;29;20041;-82
2022/04/20 06:40:16;;;;;;;6.22;2.70;;;8.70;81.30;;;;;;4875904;29;20171;-82
2022/04/20 06:42:42;;;;;;;3.92;2.30;;;8.80;80.70;;;;;;4859257;29;20147;-82
2022/04/20 06:45:08;;;;;;;3.92;2.35;;;8.80;80.70;;;;;;4857135;29;20506;-82
2022/04/20 06:47:34;;;;;;;3.63;2.08;;;8.90;80.00;;;;;;4855369;29;20082;-83
2022/04/20 06:50:00;;;;;;;5.97;3.20;;;9.00;79.40;;;;;;4858135;29;20708;-83
2022/04/20 07:00:39;;;;;;;5.68;2.40;;;9.30;77.10;;;;;;4860348;29;20474;-82
2022/04/20 07:03:06;;;;;;;6.72;2.65;;;9.40;77.00;;;;;;4858416;29;20044;-82
2022/04/20 07:05:33;;;;;;;4.97;2.40;;;9.40;76.30;;;;;;4855421;29;20049;-82
2022/04/20 07:08:00;;;;;;;3.67;2.15;;;9.50;75.40;;;;;;4853730;29;20615;-82
2022/04/20 07:10:26;;;;;;;4.43;2.28;;;9.60;74.90;;;;;;4840453;29;20302;-82
2022/04/20 07:12:52;;;;;;;4.93;2.13;;;9.70;74.40;;;;;;4842251;29;20044;-83
2022/04/20 07:15:18;;;;;;;4.90;1.77;;;9.70;73.80;;;;;;4862213;29;20080;-82
2022/04/20 07:17:44;;;;;;;10.57;2.15;;;9.80;73.60;;;;;;4856400;29;20121;-83
2022/04/20 07:20:13;;;;;;;4.03;2.28;;;9.90;73.30;;;;;;4840575;29;20102;-83
2022/04/20 07:22:39;;;;;;;4.78;2.10;;;10.00;72.80;;;;;;4835690;29;21136;-82
2022/04/20 07:25:05;;;;;;;5.55;2.10;;;10.10;72.50;;;;;;4840517;29;20052;-82
2022/04/20 07:27:32;;;;;;;7.03;2.50;;;10.20;71.90;;;;;;4838102;29;20052;-83
2022/04/20 07:29:58;;;;;;;3.60;2.00;;;10.30;71.80;;;;;;4875239;29;20360;-82
2022/04/20 07:32:23;;;;;;;3.40;1.88;;;10.40;71.50;;;;;;4853597;29;20060;-81
2022/04/20 07:34:49;;;;;;;4.75;2.13;;;10.50;71.00;;;;;;4871508;29;20052;-84
2022/04/20 07:37:15;;;;;;;4.60;2.13;;;10.60;70.60;;;;;;4839369;29;20407;-82
2022/04/20 07:39:40;;;;;;;3.83;2.20;;;10.70;70.00;;;;;;4857808;29;20050;-82
2022/04/20 07:42:06;;;;;;;4.55;2.22;;;10.80;69.70;;;;;;4855701;29;20049;-82
2022/04/20 07:44:32;;;;;;;4.15;2.05;;;10.90;69.10;;;;;;4837648;29;20068;-81
2022/04/20 07:46:58;;;;;;;4.88;1.98;;;11.00;68.10;;;;;;4855285;29;20048;-82
2022/04/20 07:52:08;;;;;;;3.38;1.83;;;11.20;67.20;;;;;;4856271;29;20045;-82
2022/04/20 07:54:34;;;;;;;4.72;1.83;;;11.20;66.70;;;;;;4856962;29;20427;-83
2022/04/20 07:57:00;;;;;;;4.93;1.90;;;11.30;65.70;;;;;;4871191;29;20048;-81
2022/04/20 07:59:26;;;;;;;3.92;1.77;;;11.40;65.70;;;;;;4840770;29;20040;-82
2022/04/20 08:01:51;;;;;;;3.45;1.67;;;11.50;65.30;;;;;;4857593;29;20188;-83
2022/04/20 08:04:17;;;;;;;5.07;1.73;;;11.60;64.50;;;;;;4855639;29;20115;-82
2022/04/20 08:06:43;;;;;;;3.25;1.58;;;11.70;63.60;;;;;;4871858;29;20060;-83
2022/04/20 08:09:08;;;;;;;3.25;1.70;;;11.70;62.70;;;;;;4859167;29;20048;-83
2022/04/20 08:11:34;;;;;;;5.38;1.77;;;11.90;61.80;;;;;;4859868;29;20125;-83
2022/04/20 08:14:12;;;;;;;4.07;1.20;;;11.90;61.20;;;;;;4877521;29;20045;-83
2022/04/20 08:16:38;;;;;;;2.60;1.10;;;12.00;60.60;;;;;;4874998;29;20488;-83
2022/04/20 08:19:04;;;;;;;3.65;1.20;;;12.10;59.10;;;;;;4860179;29;20060;-82
2022/04/20 08:21:29;;;;;;;3.38;1.55;;;12.20;58.90;;;;;;4857978;29;20048;-82
2022/04/20 08:23:55;;;;;;;3.97;1.20;;;12.30;58.90;;;;;;4862216;29;20436;-83
2022/04/20 08:26:21;;;;;;;3.17;1.30;;;12.40;57.80;;;;;;4858448;29;20037;-82
2022/04/20 08:28:46;;;;;;;2.17;1.17;;;12.50;56.80;;;;;;4860426;29;20040;-83
2022/04/20 08:31:15;;;;;;;2.03;0.80;;;12.60;55.50;;;;;;4842923;29;20432;-82
2022/04/20 08:33:44;;;;;;;1.77;0.60;;;12.80;55.30;;;;;;4874116;29;20400;-83
2022/04/20 08:36:12;;;;;;;2.05;0.85;;;12.90;54.40;;;;;;4877220;29;20048;-83
2022/04/20 08:38:39;;;;;;;1.80;0.82;;;13.10;54.00;;;;;;4857698;29;20049;-83
2022/04/20 08:41:06;;;;;;;3.38;0.82;;;13.20;53.00;;;;;;4842118;29;20088;-83
2022/04/20 08:43:32;;;;;;;2.58;0.90;;;13.20;51.60;;;;;;4839388;29;20089;-83
2022/04/20 08:46:02;;;;;;;2.05;0.70;;;13.30;51.70;;;;;;4859466;29;20264;-83
2022/04/20 08:48:28;;;;;;;2.22;0.85;;;13.40;51.40;;;;;;4873277;29;20056;-84
2022/04/20 08:50:54;;;;;;;32.85;8.52;;;13.60;51.10;;;;;;4859132;29;20052;-86
2022/04/20 11:49:46;;;;;;;4.43;1.60;;;28.90;21.30;;;;;;5132694;27;20420;-44
2022/04/20 11:52:14;;;;;;;11.10;2.45;;;26.50;24.00;;;;;;5095554;27;20055;-41
2022/04/20 11:54:47;;;;;;;6.25;2.13;;;24.80;27.50;;;;;;5075426;28;20089;-40
2022/04/20 11:57:15;;;;;;;2.85;1.23;;;23.30;28.90;;;;;;5078607;28;20048;-38
2022/04/20 11:59:45;;;;;;;2.53;1.30;;;22.10;29.90;;;;;;5078085;28;20033;-40
2022/04/20 12:02:15;;;;;;;3.47;1.40;;;21.30;35.10;;;;;;5079089;28;20492;-42
2022/04/20 12:04:46;;;;;;;3.58;1.45;;;20.90;35.50;;;;;;5075955;28;20032;-40
2022/04/20 12:07:12;;;;;;;5.03;1.52;;;20.50;35.50;;;;;;5077826;28;20028;-40
2022/04/20 12:09:40;;;;;;;3.30;1.63;;;20.30;36.70;;;;;;5076040;28;20558;-38
2022/04/20 12:12:08;;;;;;;8.63;3.15;;;20.00;34.00;;;;;;5075269;28;20085;-39
2022/04/20 12:14:37;;;;;;;2.75;1.65;;;19.80;37.20;;;;;;5076390;28;20484;-40
2022/04/20 12:17:14;;;;;;;5.25;1.45;;;19.80;37.60;;;;;;5070865;28;20055;-40
2022/04/20 12:19:41;;;;;;;5.68;1.67;;;19.70;37.10;;;;;;5070110;28;20033;-40
2022/04/20 12:22:12;;;;;;;3.53;2.03;;;19.60;40.00;;;;;;5077070;28;20493;-39
2022/04/20 12:24:38;;;;;;;2.15;1.30;;;19.60;38.10;;;;;;5077976;28;20044;-43
2022/04/20 12:27:19;;;;;;;4.35;1.48;;;19.60;38.00;;;;;;5079627;28;20043;-40
2022/04/20 12:29:51;;;;;;;3.28;1.65;;;19.80;38.10;;;;;;5077315;28;20127;-41
2022/04/20 12:32:22;;;;;;;;;;;19.80;37.00;;;;;;5073404;28;20408;-40
2022/04/20 12:34:59;;;;;;;3.83;1.70;;;19.90;37.50;;;;;;5073781;28;20361;-41
2022/04/20 12:37:39;;;;;;;2.83;1.83;;;19.90;36.10;;;;;;5078235;28;20098;-43
2022/04/20 12:40:24;;;;;;;5.07;1.70;;;19.80;35.90;;;;;;5074715;28;20075;-42
2022/04/20 12:43:06;;;;;;;2.88;1.20;;;19.90;36.20;;;;;;5074262;28;20496;-41
2022/04/20 12:45:35;;;;;;;3.60;1.52;;;20.00;38.60;;;;;;5075774;28;20511;-41
2022/04/20 12:48:04;;;;;;;5.10;1.58;;;20.20;36.30;;;;;;5080429;28;20139;-41
2022/04/20 12:50:38;;;;;;;4.88;1.70;;;20.20;34.70;;;;;;5094217;28;20492;-41
2022/04/20 12:53:04;;;;;;;4.60;1.48;;;20.10;34.70;;;;;;5092508;28;20032;-41
2022/04/20 12:55:38;;;;;;;2.20;1.27;;;20.00;34.10;;;;;;5103058;28;20073;-42
2022/04/20 13:03:40;;;;;;;4.25;1.23;;;20.10;35.80;;;;;;5081131;28;20138;-42
2022/04/20 13:06:10;;;;;;;2.33;1.10;;;20.10;33.70;;;;;;5087697;28;20468;-42
2022/04/20 13:08:45;;;;;;;3.30;1.45;;;20.30;34.60;;;;;;5084983;28;20067;-45
2022/04/20 13:11:13;;;;;;;10.85;1.30;;;20.50;35.20;;;;;;5085723;28;20406;-42
2022/04/20 13:13:39;;;;;;;12.50;1.55;;;20.70;33.30;;;;;;5083932;28;20043;-41
2022/04/20 13:16:08;;;;;;;2.90;1.13;;;21.10;34.00;;;;;;5083479;28;20468;-40
2022/04/20 13:18:35;;;;;;;1.52;1.10;;;21.50;32.30;;;;;;5071197;28;20093;-40
2022/04/20 13:21:00;;;;;;;1.90;1.23;;;21.90;31.20;;;;;;5079504;28;20451;-41
2022/04/20 13:23:26;;;;;;;5.57;1.23;;;22.10;30.10;;;;;;5086257;28;20040;-44
2022/04/20 13:28:36;;;;;;;3.72;1.00;;;22.70;29.20;;;;;;5074351;28;20469;-39
2022/04/20 13:31:01;;;;;;;4.85;1.02;;;22.80;27.80;;;;;;5078930;28;20074;-44
2022/04/20 13:33:28;;;;;;;3.15;0.90;;;23.10;27.90;;;;;;5074316;28;20488;-43
2022/04/20 13:35:55;;;;;;;4.18;0.85;;;23.20;27.70;;;;;;5074612;28;20075;-43
2022/04/20 13:38:22;;;;;;;1.60;0.80;;;23.50;26.60;;;;;;5058793;28;20043;-46
2022/04/20 13:40:48;;;;;;;1.73;0.80;;;23.80;27.20;;;;;;5073599;28;20428;-43
2022/04/20 13:43:14;;;;;;;2.85;0.93;;;24.20;26.50;;;;;;5076652;28;20091;-41
2022/04/20 13:45:40;;;;;;;1.88;0.90;;;24.50;28.00;;;;;;5075498;28;20044;-41
2022/04/20 13:48:06;;;;;;;1.38;0.80;;;24.90;27.00;;;;;;5077078;28;20720;-44
2022/04/20 13:50:32;;;;;;;2.53;0.77;;;25.20;25.60;;;;;;5074391;28;20162;-44
2022/04/20 13:52:59;;;;;;;6.32;1.00;;;25.60;25.70;;;;;;5073387;28;20116;-42
2022/04/20 13:55:25;;;;;;;5.07;0.90;;;25.70;25.40;;;;;;5062332;28;20672;-44
2022/04/20 13:57:51;;;;;;;2.08;0.90;;;25.70;24.60;;;;;;5083405;28;20409;-42
2022/04/20 14:00:17;;;;;;;5.68;1.00;;;25.60;25.20;;;;;;5082298;28;20138;-43
2022/04/20 14:02:43;;;;;;;1.85;1.00;;;25.70;25.10;;;;;;5079160;28;20092;-42
2022/04/20 14:05:09;;;;;;;3.42;0.85;;;26.00;24.90;;;;;;5065878;28;20491;-44
2022/04/20 14:07:35;;;;;;;2.25;0.95;;;25.90;23.70;;;;;;5083744;28;20044;-43
2022/04/20 14:10:03;;;;;;;2.33;1.00;;;25.90;23.80;;;;;;5078812;28;20568;-48
2022/04/20 14:12:29;;;;;;;2.38;0.93;;;26.00;25.00;;;;;;5061068;28;20043;-46
2022/04/20 14:14:59;;;;;;;4.82;1.30;;;26.20;24.20;;;;;;5083477;28;20389;-46
2022/04/20 14:17:24;;;;;;;3.42;1.40;;;26.30;24.10;;;;;;5077597;28;20097;-45
2022/04/20 14:19:50;;;;;;;3.53;1.40;;;26.60;24.00;;;;;;5078098;28;20039;-47
2022/04/20 14:22:16;;;;;;;2.28;1.23;;;26.70;24.60;;;;;;5076916;28;20040;-44
2022/04/20 14:24:43;;;;;;;4.43;1.50;;;26.80;24.10;;;;;;5083639;28;20035;-49
2022/04/20 14:32:39;;;;;;;5.97;1.58;;;27.40;24.30;;;;;;5078895;28;20097;-43
2022/04/20 14:35:07;;;;;;;3.45;1.70;;;27.10;23.50;;;;;;5067910;28;20566;-47
2022/04/20 14:37:34;;;;;;;2.10;1.60;;;27.30;23.30;;;;;;5078061;28;20503;-44
2022/04/20 14:40:00;;;;;;;2.85;1.63;;;27.20;23.80;;;;;;5069264;28;20030;-44
2022/04/20 14:42:27;;;;;;;10.90;2.03;;;27.60;25.80;;;;;;5076825;28;20712;-44
2022/04/20 14:44:53;;;;;;;6.45;2.60;;;27.60;23.50;;;;;;5077038;28;20560;-44
2022/04/20 14:47:19;;;;;;;7.43;2.10;;;27.70;23.60;;;;;;5065905;28;20123;-46
2022/04/20 14:49:44;;;;;;;4.72;2.00;;;27.90;23.70;;;;;;5081783;28;20362;-48
2022/04/20 14:52:13;;;;;;;2.40;1.60;;;27.80;23.50;;;;;;5079139;28;20036;-41
2022/04/20 14:54:41;;;;;;;8.07;2.00;;;27.80;22.90;;;;;;5082074;28;20452;-46
2022/04/20 14:57:07;;;;;;;3.88;1.83;;;27.80;23.20;;;;;;5059193;28;20035;-43
2022/04/20 14:59:33;;;;;;;7.93;1.85;;;27.80;23.60;;;;;;5079430;28;20040;-48
2022/04/20 15:02:03;;;;;;;8.07;1.95;;;27.90;22.20;;;;;;5083197;28;20062;-43
2022/04/20 15:04:29;;;;;;;4.07;1.90;;;28.10;23.60;;;;;;5077737;28;20420;-45
2022/04/20 15:06:55;;;;;;;2.42;1.88;;;28.30;23.80;;;;;;5087363;28;20442;-43
2022/04/20 15:09:22;;;;;;;2.67;1.95;;;28.40;22.50;;;;;;5086756;28;20594;-48
2022/04/20 15:11:48;;;;;;;3.67;2.25;;;28.70;23.20;;;;;;5062678;28;20143;-48
2022/04/20 15:14:14;;;;;;;2.65;1.98;;;28.40;22.50;;;;;;5085395;28;20071;-44
2022/04/20 15:16:40;;;;;;;3.17;2.10;;;28.40;23.70;;;;;;5078994;28;20093;-45
2022/04/20 15:19:06;;;;;;;4.20;2.08;;;28.60;23.40;;;;;;5085434;28;20443;-44
2022/04/20 15:21:32;;;;;;;3.45;2.00;;;28.60;23.40;;;;;;5065287;28;20161;-46
2022/04/20 15:23:58;;;;;;;2.58;2.05;;;28.60;23.60;;;;;;5074992;28;20076;-44
2022/04/20 15:26:24;;;;;;;2.72;2.00;;;28.50;22.40;;;;;;5081860;28;20040;-44
2022/04/20 15:28:52;;;;;;;3.85;2.33;;;28.00;23.30;;;;;;5080440;28;20036;-45
2022/04/20 15:31:19;;;;;;;3.72;2.05;;;28.20;23.00;;;;;;5083650;28;20123;-45
2022/04/20 15:33:45;;;;;;;2.28;1.90;;;28.40;23.00;;;;;;5059598;28;20042;-44
2022/04/20 15:36:12;;;;;;;2.42;2.20;;;28.40;22.80;;;;;;5080167;28;20138;-46
2022/04/20 15:38:39;;;;;;;2.50;2.30;;;28.10;22.70;;;;;;5083024;28;20039;-43
2022/04/20 15:41:05;;;;;;;4.47;2.22;;;28.40;22.90;;;;;;5082777;28;20036;-46
2022/04/20 15:43:33;;;;;;;7.40;2.40;;;28.50;22.80;;;;;;5084283;28;20085;-44
2022/04/20 15:46:00;;;;;;;6.93;2.72;;;28.40;22.10;;;;;;5085628;28;20481;-46
2022/04/20 15:48:25;;;;;;;4.28;2.20;;;28.30;23.30;;;;;;5061915;28;20063;-45
2022/04/20 15:50:51;;;;;;;2.38;2.13;;;28.40;22.50;;;;;;5079318;28;20043;-45
2022/04/20 15:53:17;;;;;;;3.10;2.15;;;28.30;22.50;;;;;;5079811;28;20131;-43
2022/04/20 16:01:12;;;;;;;3.33;2.10;;;28.20;22.70;;;;;;5076466;28;20048;-43
2022/04/20 16:03:37;;;;;;;4.47;2.40;;;28.70;22.90;;;;;;5084627;28;20059;-44
2022/04/20 16:06:03;;;;;;;4.07;2.72;;;28.60;22.30;;;;;;5085019;28;20128;-45
2022/04/20 16:08:29;;;;;;;3.20;2.45;;;28.80;21.80;;;;;;5086448;28;20050;-45
2022/04/20 16:10:55;;;;;;;3.22;2.30;;;28.40;21.80;;;;;;5075005;28;20044;-46
2022/04/20 16:13:22;;;;;;;3.67;2.47;;;28.60;23.30;;;;;;5080534;28;20039;-46
2022/04/20 16:15:48;;;;;;;3.70;2.47;;;28.80;21.90;;;;;;5082545;28;20472;-46
2022/04/20 16:18:16;;;;;;;6.75;2.42;;;28.90;22.00;;;;;;5063476;28;20514;-43
2022/04/20 16:20:45;;;;;;;3.50;2.40;;;28.90;21.60;;;;;;5082244;28;20500;-46
2022/04/20 16:23:13;;;;;;;4.00;2.38;;;28.50;21.10;;;;;;5080260;28;20082;-46
2022/04/20 16:25:38;;;;;;;6.05;2.40;;;28.10;22.30;;;;;;5072905;28;20045;-42
2022/04/20 16:28:05;;;;;;;5.53;2.30;;;27.40;22.90;;;;;;5092233;28;20127;-43